Maersk Bulan — 9V7693 — position and weather

sailwx.info

Track history (hours):
 
Tides and Currents Weather Stations Pressure Air Temp Water Temp Dewpoint Dewpoint Depression Visibility Wind Speed Wind Dir Waves Ship Positions

Maersk Bulan

Last reported at 2016-May-06 01:13 UTC. Time now 2016-May-06 07:25 UTC.
Position N 43°36' E 035°08'.

Length 223 m; draft 11.5 m.

Type: Ship (hazmat cat A). MMSI: 563455000.

Date/timePositionNaut miles runAvg speedWind from/ knotsBaromVisibWave heightAir tempDewpointWater temp
2016-May-06 01:13N 43°36' E 035°08'11116.6
2016-May-05 18:33N 44°26' E 037°25'1616.1
2016-May-05 17:34N 44°34' E 037°44'9 9.3
2016-May-05 16:33N 44°43' E 037°48'1 0.8
2016-May-05 15:33N 44°43' E 037°49'0 0.0
2016-May-05 14:33N 44°43' E 037°49'0 0.0
2016-May-05 13:33N 44°43' E 037°49'0 0.0
2016-May-05 12:33N 44°43' E 037°49'0 0.0
2016-May-05 11:33N 44°43' E 037°49'0 0.0
2016-May-05 10:33N 44°43' E 037°49'0 0.0
2016-May-05 09:33N 44°43' E 037°49'0 0.0
2016-May-05 08:33N 44°43' E 037°49'0 0.0
2016-May-05 07:33N 44°43' E 037°49'0 0.0
2016-May-05 06:33N 44°43' E 037°49'0 0.0
2016-May-05 05:33N 44°43' E 037°49'0 0.0
2016-May-05 04:33N 44°43' E 037°49'0 0.0
2016-May-05 03:33N 44°43' E 037°49'0 0.0
2016-May-05 02:33N 44°43' E 037°49'0 0.0
2016-May-05 01:33N 44°43' E 037°49'0 0.0
2016-May-05 00:33N 44°43' E 037°49'0 0.0
2016-May-04 23:33N 44°43' E 037°49'0 0.0
2016-May-04 22:33N 44°43' E 037°49'0 0.0
2016-May-04 21:33N 44°43' E 037°49'0 0.0
2016-May-04 20:33N 44°43' E 037°49'0 0.0
2016-May-04 19:33N 44°43' E 037°49'0 0.0
2016-May-04 18:33N 44°43' E 037°49'0 0.0
2016-May-04 17:33N 44°43' E 037°49'0 0.0
2016-May-04 16:33N 44°43' E 037°49'0 0.0
2016-May-04 15:33N 44°43' E 037°49'0 0.0
2016-May-04 14:30N 44°43' E 037°49'0 0.0
2016-May-04 13:33N 44°43' E 037°49'0 0.0
2016-May-04 12:33N 44°43' E 037°49'0 0.0
2016-May-04 11:33N 44°43' E 037°49'0 0.0
2016-May-04 10:33N 44°43' E 037°49'0 0.0
2016-May-04 09:33N 44°43' E 037°49'0 0.0
2016-May-04 08:33N 44°43' E 037°49'0 0.0
2016-May-04 07:33N 44°43' E 037°49'1 1.1
2016-May-04 06:33N 44°42' E 037°49'9 9.1
2016-May-04 05:34N 44°33' E 037°50'1414.1
2016-May-04 04:33N 44°26' E 037°33'6 6.4
2016-May-04 03:33N 44°25' E 037°24'0 0.3
2016-May-04 02:32N 44°24' E 037°24'1 0.8
2016-May-04 01:32N 44°24' E 037°25'1 1.1
2016-May-04 00:16N 44°23' E 037°27'1 1.2
2016-May-03 23:27N 44°23' E 037°28'1 1.4
2016-May-03 22:33N 44°23' E 037°30'1 1.4
2016-May-03 21:33N 44°23' E 037°32'1 1.4
2016-May-03 20:33N 44°24' E 037°34'2 0.7
2016-May-03 18:13N 44°25' E 037°34'1 1.0
2016-May-03 17:32N 44°25' E 037°35'1 0.9
2016-May-03 16:34N 44°26' E 037°36'1 0.9
2016-May-03 15:33N 44°26' E 037°37'0 0.2
2016-May-03 14:29N 44°26' E 037°38'0 0.3
2016-May-03 13:34N 44°26' E 037°38'0 0.4
2016-May-03 12:34N 44°26' E 037°38'0 0.4
2016-May-03 11:33N 44°27' E 037°39'0 0.5
2016-May-03 10:34N 44°27' E 037°39'2 0.6
2016-May-03 08:10N 44°27' E 037°41'1620.3
2016-May-03 07:23N 44°35' E 038°01'1613.7
2016-May-03 06:15N 44°27' E 037°42'0 0.1
2016-May-03 04:34N 44°27' E 037°42'1 0.7
2016-May-03 03:33N 44°26' E 037°43'10 9.8
2016-May-03 02:33N 44°24' E 037°30'10614.5
2016-May-02 19:14N 44°15' E 035°02'1315.4
2016-May-02 18:23N 44°15' E 034°44'1315.4
2016-May-02 17:33N 44°15' E 034°26'1515.2
2016-May-02 16:33N 44°15' E 034°04'17814.3
2016-May-02 04:04N 46°14' E 030°56'712.6
2016-May-02 03:31N 46°21' E 030°55'1212.9
2016-May-02 02:33N 46°33' E 030°59'7 0.4
2016-May-01 11:08N 46°39' E 031°01'2 0.3
2016-May-01 04:20N 46°37' E 031°01'7 8.8
2016-May-01 03:33N 46°31' E 030°57'10 9.9
2016-May-01 02:33N 46°21' E 030°57'1312.1
2016-May-01 01:30N 46°10' E 031°06'32912.7
2016-Apr-29 23:33N 40°54' E 028°57'9 2.1
2016-Apr-29 19:17N 40°46' E 028°52'2 1.2
2016-Apr-29 17:33N 40°48' E 028°54'6 5.7
2016-Apr-29 16:30N 40°47' E 028°46'0 0.1
2016-Apr-29 15:33N 40°47' E 028°46'0 0.4
2016-Apr-29 14:33N 40°47' E 028°47'1 0.5
2016-Apr-29 13:28N 40°47' E 028°47'0 0.5
2016-Apr-29 12:33N 40°47' E 028°48'1 0.6
2016-Apr-29 11:15N 40°47' E 028°49'0 0.5
2016-Apr-29 10:33N 40°48' E 028°49'1 0.5
2016-Apr-29 09:33N 40°47' E 028°50'1 0.7
2016-Apr-29 08:33N 40°48' E 028°51'1 0.7
2016-Apr-29 07:33N 40°48' E 028°51'5 5.4
2016-Apr-29 06:33N 40°50' E 028°45'3 0.1
2016-Apr-28 06:08N 40°47' E 028°44'712.4
2016-Apr-28 05:32N 40°47' E 028°53'1212.4
2016-Apr-28 04:33N 40°45' E 029°10'1211.9
2016-Apr-28 03:33N 40°45' E 029°25'1312.4
2016-Apr-28 02:30N 40°46' E 029°42'16 1.2
2016-Apr-27 13:33N 40°43' E 029°22'1312.6
2016-Apr-27 12:33N 40°45' E 029°05'4 4.4
2016-Apr-27 11:33N 40°45' E 028°60'1 0.7
2016-Apr-27 10:30N 40°46' E 028°60'1 1.0
2016-Apr-27 09:33N 40°46' E 028°59'0 0.4
2016-Apr-27 08:33N 40°47' E 028°59'0 0.3
2016-Apr-27 07:33N 40°47' E 028°59'0 0.4
2016-Apr-27 06:31N 40°47' E 028°59'1010.1
2016-Apr-27 05:29N 40°46' E 028°45'  
Track history (hours):
 
Tides and Currents Weather Stations Pressure Air Temp Water Temp Dewpoint Dewpoint Depression Visibility Wind Speed Wind Dir Waves Ship Positions

Maersk Bulan

Last reported at 2016-May-06 01:13 UTC. Time now 2016-May-06 07:25 UTC.
Position N 43°36' E 035°08'.

Length 223 m; draft 11.5 m.

Type: Ship (hazmat cat A). MMSI: 563455000.

Date/timePositionNaut miles runAvg speedWind from/ knotsBaromVisibWave heightAir tempDewpointWater temp
2016-May-06 01:13N 43°36' E 035°08'11116.6
2016-May-05 18:33N 44°26' E 037°25'1616.1
2016-May-05 17:34N 44°34' E 037°44'9 9.3
2016-May-05 16:33N 44°43' E 037°48'1 0.8
2016-May-05 15:33N 44°43' E 037°49'0 0.0
2016-May-05 14:33N 44°43' E 037°49'0 0.0
2016-May-05 13:33N 44°43' E 037°49'0 0.0
2016-May-05 12:33N 44°43' E 037°49'0 0.0
2016-May-05 11:33N 44°43' E 037°49'0 0.0
2016-May-05 10:33N 44°43' E 037°49'0 0.0
2016-May-05 09:33N 44°43' E 037°49'0 0.0
2016-May-05 08:33N 44°43' E 037°49'0 0.0
2016-May-05 07:33N 44°43' E 037°49'0 0.0
2016-May-05 06:33N 44°43' E 037°49'0 0.0
2016-May-05 05:33N 44°43' E 037°49'0 0.0
2016-May-05 04:33N 44°43' E 037°49'0 0.0
2016-May-05 03:33N 44°43' E 037°49'0 0.0
2016-May-05 02:33N 44°43' E 037°49'0 0.0
2016-May-05 01:33N 44°43' E 037°49'0 0.0
2016-May-05 00:33N 44°43' E 037°49'0 0.0
2016-May-04 23:33N 44°43' E 037°49'0 0.0
2016-May-04 22:33N 44°43' E 037°49'0 0.0
2016-May-04 21:33N 44°43' E 037°49'0 0.0
2016-May-04 20:33N 44°43' E 037°49'0 0.0
2016-May-04 19:33N 44°43' E 037°49'0 0.0
2016-May-04 18:33N 44°43' E 037°49'0 0.0
2016-May-04 17:33N 44°43' E 037°49'0 0.0
2016-May-04 16:33N 44°43' E 037°49'0 0.0
2016-May-04 15:33N 44°43' E 037°49'0 0.0
2016-May-04 14:30N 44°43' E 037°49'0 0.0
2016-May-04 13:33N 44°43' E 037°49'0 0.0
2016-May-04 12:33N 44°43' E 037°49'0 0.0
2016-May-04 11:33N 44°43' E 037°49'0 0.0
2016-May-04 10:33N 44°43' E 037°49'0 0.0
2016-May-04 09:33N 44°43' E 037°49'0 0.0
2016-May-04 08:33N 44°43' E 037°49'0 0.0
2016-May-04 07:33N 44°43' E 037°49'1 1.1
2016-May-04 06:33N 44°42' E 037°49'9 9.1
2016-May-04 05:34N 44°33' E 037°50'1414.1
2016-May-04 04:33N 44°26' E 037°33'6 6.4
2016-May-04 03:33N 44°25' E 037°24'0 0.3
2016-May-04 02:32N 44°24' E 037°24'1 0.8
2016-May-04 01:32N 44°24' E 037°25'1 1.1
2016-May-04 00:16N 44°23' E 037°27'1 1.2
2016-May-03 23:27N 44°23' E 037°28'1 1.4
2016-May-03 22:33N 44°23' E 037°30'1 1.4
2016-May-03 21:33N 44°23' E 037°32'1 1.4
2016-May-03 20:33N 44°24' E 037°34'2 0.7
2016-May-03 18:13N 44°25' E 037°34'1 1.0
2016-May-03 17:32N 44°25' E 037°35'1 0.9
2016-May-03 16:34N 44°26' E 037°36'1 0.9
2016-May-03 15:33N 44°26' E 037°37'0 0.2
2016-May-03 14:29N 44°26' E 037°38'0 0.3
2016-May-03 13:34N 44°26' E 037°38'0 0.4
2016-May-03 12:34N 44°26' E 037°38'0 0.4
2016-May-03 11:33N 44°27' E 037°39'0 0.5
2016-May-03 10:34N 44°27' E 037°39'2 0.6
2016-May-03 08:10N 44°27' E 037°41'1620.3
2016-May-03 07:23N 44°35' E 038°01'1613.7
2016-May-03 06:15N 44°27' E 037°42'0 0.1
2016-May-03 04:34N 44°27' E 037°42'1 0.7
2016-May-03 03:33N 44°26' E 037°43'10 9.8
2016-May-03 02:33N 44°24' E 037°30'10614.5
2016-May-02 19:14N 44°15' E 035°02'1315.4
2016-May-02 18:23N 44°15' E 034°44'1315.4
2016-May-02 17:33N 44°15' E 034°26'1515.2
2016-May-02 16:33N 44°15' E 034°04'17814.3
2016-May-02 04:04N 46°14' E 030°56'712.6
2016-May-02 03:31N 46°21' E 030°55'1212.9
2016-May-02 02:33N 46°33' E 030°59'7 0.4
2016-May-01 11:08N 46°39' E 031°01'2 0.3
2016-May-01 04:20N 46°37' E 031°01'7 8.8
2016-May-01 03:33N 46°31' E 030°57'10 9.9
2016-May-01 02:33N 46°21' E 030°57'1312.1
2016-May-01 01:30N 46°10' E 031°06'32912.7
2016-Apr-29 23:33N 40°54' E 028°57'9 2.1
2016-Apr-29 19:17N 40°46' E 028°52'2 1.2
2016-Apr-29 17:33N 40°48' E 028°54'6 5.7
2016-Apr-29 16:30N 40°47' E 028°46'0 0.1
2016-Apr-29 15:33N 40°47' E 028°46'0 0.4
2016-Apr-29 14:33N 40°47' E 028°47'1 0.5
2016-Apr-29 13:28N 40°47' E 028°47'0 0.5
2016-Apr-29 12:33N 40°47' E 028°48'1 0.6
2016-Apr-29 11:15N 40°47' E 028°49'0 0.5
2016-Apr-29 10:33N 40°48' E 028°49'1 0.5
2016-Apr-29 09:33N 40°47' E 028°50'1 0.7
2016-Apr-29 08:33N 40°48' E 028°51'1 0.7
2016-Apr-29 07:33N 40°48' E 028°51'5 5.4
2016-Apr-29 06:33N 40°50' E 028°45'3 0.1
2016-Apr-28 06:08N 40°47' E 028°44'712.4
2016-Apr-28 05:32N 40°47' E 028°53'1212.4
2016-Apr-28 04:33N 40°45' E 029°10'1211.9
2016-Apr-28 03:33N 40°45' E 029°25'1312.4
2016-Apr-28 02:30N 40°46' E 029°42'16 1.2
2016-Apr-27 13:33N 40°43' E 029°22'1312.6
2016-Apr-27 12:33N 40°45' E 029°05'4 4.4
2016-Apr-27 11:33N 40°45' E 028°60'1 0.7
2016-Apr-27 10:30N 40°46' E 028°60'1 1.0
2016-Apr-27 09:33N 40°46' E 028°59'0 0.4
2016-Apr-27 08:33N 40°47' E 028°59'0 0.3
2016-Apr-27 07:33N 40°47' E 028°59'0 0.4
2016-Apr-27 06:31N 40°47' E 028°59'1010.1
2016-Apr-27 05:29N 40°46' E 028°45'  

Dump ship's entire track history